createdAt,value
2019-06-08T00:02:30.798Z,98887.60
2019-06-08T00:06:32.679Z,98893.17
2019-06-08T00:10:34.469Z,98895.01
2019-06-08T00:14:36.229Z,98896.76
2019-06-08T00:18:37.970Z,98897.71
2019-06-08T00:22:39.719Z,98900.41
2019-06-08T00:26:41.479Z,98893.33
2019-06-08T00:30:43.228Z,98898.28
2019-06-08T00:34:44.944Z,98916.16
2019-06-08T00:38:46.697Z,98903.36
2019-06-08T00:42:48.464Z,98909.41
2019-06-08T00:46:50.228Z,98908.95
2019-06-08T00:50:52.305Z,98914.20
2019-06-08T00:54:54.077Z,98919.52
2019-06-08T00:58:55.829Z,98916.75
2019-06-08T01:02:57.806Z,98921.34
2019-06-08T01:06:59.556Z,98937.77
2019-06-08T01:11:01.454Z,98935.56
2019-06-08T01:15:04.290Z,98946.91
2019-06-08T01:19:06.187Z,98943.38
2019-06-08T01:23:08.088Z,98946.31
2019-06-08T01:27:09.860Z,98948.61
2019-06-08T01:31:11.653Z,98959.28
2019-06-08T01:35:13.448Z,98966.34
2019-06-08T01:39:15.200Z,98951.59
2019-06-08T01:43:16.975Z,98968.80
2019-06-08T01:47:18.728Z,98958.55
2019-06-08T01:51:20.557Z,98967.69
2019-06-08T01:55:22.996Z,98968.87
2019-06-08T01:59:25.289Z,98972.37
2019-06-08T02:03:28.171Z,98969.23
2019-06-08T02:07:30.418Z,98979.55
2019-06-08T02:11:33.037Z,98984.07
2019-06-08T02:15:35.369Z,98975.23
2019-06-08T02:19:37.296Z,98982.44
2019-06-08T02:23:39.728Z,98981.78
2019-06-08T02:27:41.570Z,98979.95
2019-06-08T02:31:43.318Z,98987.30
2019-06-08T02:35:45.066Z,98988.09
2019-06-08T02:39:46.909Z,98985.53
2019-06-08T02:43:48.669Z,99002.12
2019-06-08T02:47:50.433Z,99001.95
2019-06-08T02:51:52.474Z,99013.77
2019-06-08T02:55:54.411Z,99004.31
2019-06-08T02:59:59.956Z,99020.16
2019-06-08T03:04:01.836Z,99020.29
2019-06-08T03:08:04.434Z,99035.11
2019-06-08T03:12:06.134Z,99042.24
2019-06-08T03:16:07.875Z,99047.58
2019-06-08T03:20:10.444Z,99058.05
2019-06-08T03:24:12.189Z,99054.31
2019-06-08T03:28:14.304Z,99071.48
2019-06-08T03:32:16.101Z,99066.34
2019-06-08T03:36:17.852Z,99081.58
2019-06-08T03:40:19.586Z,99070.32
2019-06-08T03:44:21.327Z,99074.09
2019-06-08T03:48:23.085Z,99077.81
2019-06-08T03:52:24.791Z,99082.76
2019-06-08T03:56:26.547Z,99092.22
2019-06-08T04:00:28.295Z,99087.88
2019-06-08T04:04:30.055Z,99100.13
2019-06-08T04:08:32.094Z,99108.58
2019-06-08T04:12:33.933Z,99112.52
2019-06-08T04:16:35.679Z,99119.66
2019-06-08T04:20:38.024Z,99119.42
2019-06-08T04:24:40.231Z,99129.08
2019-06-08T04:28:42.528Z,99119.22
2019-06-08T04:32:45.005Z,99129.08
2019-06-08T04:36:48.573Z,99135.41
2019-06-08T04:40:51.022Z,99134.02
2019-06-08T04:44:52.756Z,99139.36
2019-06-08T04:48:54.760Z,99143.28
2019-06-08T04:52:56.501Z,99150.41
2019-06-08T04:56:58.252Z,99161.02
2019-06-08T05:00:59.993Z,99158.27
2019-06-08T05:05:01.798Z,99170.52
2019-06-08T05:09:05.513Z,99178.59
2019-06-08T05:13:07.249Z,99182.50
2019-06-08T05:17:08.995Z,99186.67
2019-06-08T05:21:10.779Z,99187.85
2019-06-08T05:25:12.720Z,99212.52
2019-06-08T05:29:14.438Z,99207.77
2019-06-08T05:33:16.192Z,99209.14
2019-06-08T05:37:17.945Z,99216.66
2019-06-08T05:41:19.731Z,99216.23
2019-06-08T05:45:21.955Z,99221.56
2019-06-08T05:49:23.688Z,99216.05
2019-06-08T05:53:25.436Z,99223.55
2019-06-08T05:57:27.188Z,99221.25
2019-06-08T06:01:29.315Z,99229.12
2019-06-08T06:05:31.051Z,99220.41
2019-06-08T06:09:32.809Z,99230.28
2019-06-08T06:13:34.574Z,99246.09
2019-06-08T06:17:36.312Z,99235.83
2019-06-08T06:21:38.340Z,99248.26
2019-06-08T06:25:41.305Z,99260.10
2019-06-08T06:29:43.568Z,99263.08
2019-06-08T06:33:45.956Z,99265.61
2019-06-08T06:37:47.959Z,99265.41
2019-06-08T06:41:50.004Z,99281.14
2019-06-08T06:45:52.208Z,99281.16
2019-06-08T06:49:54.118Z,99297.72
2019-06-08T06:53:55.871Z,99290.25
2019-06-08T06:57:57.617Z,99298.36
2019-06-08T07:01:59.432Z,99296.20
2019-06-08T07:06:01.160Z,99321.27
2019-06-08T07:10:04.134Z,99321.09
2019-06-08T07:14:05.885Z,99315.15
2019-06-08T07:18:07.639Z,99329.78
2019-06-08T07:22:09.352Z,99332.75
2019-06-08T07:26:11.147Z,99346.73
2019-06-08T07:30:13.012Z,99327.59
2019-06-08T07:34:15.141Z,99358.38
2019-06-08T07:38:17.244Z,99363.50
2019-06-08T07:42:19.308Z,99360.78
2019-06-08T07:46:40.629Z,99375.17
2019-06-08T07:50:42.741Z,99370.27
2019-06-08T07:54:44.539Z,99367.70
2019-06-08T07:58:46.431Z,99366.13
2019-06-08T08:02:48.204Z,99381.94
2019-06-08T08:06:50.369Z,99377.39
2019-06-08T08:10:52.396Z,99377.79
2019-06-08T08:14:55.422Z,99380.55
2019-06-08T08:18:57.588Z,99387.26
2019-06-08T08:23:05.542Z,99393.00
2019-06-08T08:27:03.845Z,99395.38
2019-06-08T08:31:07.831Z,99394.59
2019-06-08T08:35:10.488Z,99413.75
2019-06-08T08:39:12.261Z,99402.09
2019-06-08T08:43:14.355Z,99406.41
2019-06-08T08:47:18.529Z,99413.16
2019-06-08T08:51:20.641Z,99418.50
2019-06-08T08:55:22.559Z,99420.08
2019-06-08T08:59:24.321Z,99423.02
2019-06-08T09:03:30.922Z,99428.96
2019-06-08T09:07:29.764Z,99444.17
2019-06-08T09:11:31.526Z,99440.41
2019-06-08T09:15:33.290Z,99449.71
2019-06-08T09:19:35.077Z,99455.62
2019-06-08T09:23:37.805Z,99461.95
2019-06-08T09:27:39.778Z,99444.60
2019-06-08T09:31:41.520Z,99464.91
2019-06-08T09:35:43.269Z,99469.87
2019-06-08T09:39:45.363Z,99470.86
2019-06-08T09:43:48.741Z,99464.54
2019-06-08T09:47:50.654Z,99473.45
2019-06-08T09:51:53.834Z,99473.75
2019-06-08T09:55:57.599Z,99486.41
2019-06-08T10:00:02.582Z,99498.14
2019-06-08T10:04:05.863Z,99500.27
2019-06-08T10:08:09.462Z,99491.59
2019-06-08T10:12:10.776Z,99506.66
2019-06-08T10:16:12.644Z,99516.47
2019-06-08T10:20:18.120Z,99512.84
2019-06-08T10:24:19.288Z,99509.99
2019-06-08T10:28:21.890Z,99512.29
2019-06-08T10:32:23.776Z,99513.63
2019-06-08T10:36:28.165Z,99515.63
2019-06-08T10:40:29.160Z,99520.08
2019-06-08T10:44:30.903Z,99525.38
2019-06-08T10:48:32.652Z,99539.02
2019-06-08T10:52:34.474Z,99534.53
2019-06-08T10:56:38.528Z,99552.74
2019-06-08T11:00:39.965Z,99549.14
2019-06-08T11:04:43.426Z,99559.66
2019-06-08T11:08:45.311Z,99563.79
2019-06-08T11:12:48.519Z,99563.47
2019-06-08T11:16:50.550Z,99562.01
2019-06-08T11:20:52.271Z,99548.77
2019-06-08T11:24:54.012Z,99558.03
2019-06-08T11:28:58.372Z,99575.13
2019-06-08T11:32:59.896Z,99566.48
2019-06-08T11:37:03.606Z,99587.41
2019-06-08T11:41:07.797Z,99550.69
2019-06-08T11:45:12.507Z,99571.84
2019-06-08T11:49:15.023Z,99578.41
2019-06-08T11:53:18.114Z,99581.83
2019-06-08T11:57:21.315Z,99583.06
2019-06-08T12:01:23.032Z,99612.48
2019-06-08T12:05:24.833Z,99606.44
2019-06-08T12:09:28.664Z,99613.60
2019-06-08T12:13:30.427Z,99614.43
2019-06-08T12:17:32.164Z,99599.30
2019-06-08T12:21:33.906Z,99606.62
2019-06-08T12:25:37.748Z,99617.97
2019-06-08T12:29:39.384Z,99630.65
2019-06-08T12:33:41.447Z,99642.64
2019-06-08T12:37:43.175Z,99641.67
2019-06-08T12:41:44.960Z,99641.83
2019-06-08T12:45:46.733Z,99635.47
2019-06-08T12:49:48.562Z,99633.76
2019-06-08T12:53:50.282Z,99634.64
2019-06-08T12:57:52.011Z,99638.00
2019-06-08T13:01:53.822Z,99624.55
2019-06-08T13:05:57.489Z,99630.97
2019-06-08T13:09:59.252Z,99620.91
2019-06-08T13:14:01.024Z,99625.41
2019-06-08T13:18:02.760Z,99637.30
2019-06-08T13:22:04.580Z,99639.33
2019-06-08T13:26:06.367Z,99644.42
2019-06-08T13:30:09.560Z,99637.39
2019-06-08T13:34:14.201Z,99640.16
2019-06-08T13:38:16.741Z,99639.64
2019-06-08T13:42:21.881Z,99632.16
2019-06-08T13:46:23.686Z,99630.17
2019-06-08T13:50:25.567Z,99640.72
2019-06-08T13:54:30.857Z,99651.67
2019-06-08T13:58:33.300Z,99654.20
2019-06-08T14:02:34.867Z,99652.86
2019-06-08T14:06:36.584Z,99656.75
2019-06-08T14:10:39.042Z,99664.30
2019-06-08T14:14:40.750Z,99664.67
2019-06-08T14:18:42.492Z,99671.17
2019-06-08T14:22:44.235Z,99658.37
2019-06-08T14:26:45.985Z,99652.42
2019-06-08T14:30:48.020Z,99656.38
2019-06-08T14:34:50.277Z,99665.95
2019-06-08T14:38:52.520Z,99667.78
2019-06-08T14:42:54.291Z,99645.09
2019-06-08T14:46:57.904Z,99662.16
2019-06-08T14:50:59.691Z,99654.07
2019-06-08T14:55:01.414Z,99661.22
2019-06-08T14:59:03.169Z,99696.29
2019-06-08T15:03:07.508Z,99743.09
2019-06-08T15:07:09.635Z,99699.13
2019-06-08T15:11:11.572Z,99702.73
2019-06-08T15:15:13.700Z,99712.90
2019-06-08T15:19:18.319Z,99717.94
2019-06-08T15:23:21.509Z,99715.97
2019-06-08T15:27:24.763Z,99712.03
2019-06-08T15:31:29.521Z,99706.13
2019-06-08T15:35:31.387Z,99705.74
2019-06-08T15:39:34.192Z,99710.29
2019-06-08T15:43:37.660Z,99716.66
2019-06-08T15:47:40.884Z,99701.77
2019-06-08T15:51:42.985Z,99710.19
2019-06-08T15:55:45.048Z,99701.08
2019-06-08T15:59:49.054Z,99702.80
2019-06-08T16:03:50.468Z,99710.74
2019-06-08T16:07:52.332Z,99708.38
2019-06-08T16:11:54.133Z,99706.81
2019-06-08T16:15:56.288Z,99715.99
2019-06-08T16:19:58.027Z,99727.31
2019-06-08T16:24:00.092Z,99727.66
2019-06-08T16:28:02.326Z,99734.98
2019-06-08T16:32:04.339Z,99736.38
2019-06-08T16:36:06.080Z,99742.70
2019-06-08T16:40:07.927Z,99744.98
2019-06-08T16:44:09.676Z,99738.67
2019-06-08T16:48:11.418Z,99731.79
2019-06-08T16:52:13.131Z,99741.34
2019-06-08T16:56:14.913Z,99747.50
2019-06-08T17:00:30.665Z,99751.88
2019-06-08T17:04:20.903Z,99759.06
2019-06-08T17:08:22.661Z,99758.08
2019-06-08T17:12:24.374Z,99763.22
2019-06-08T17:16:26.115Z,99756.50
2019-06-08T17:20:28.231Z,99768.19
2019-06-08T17:24:30.348Z,99773.35
2019-06-08T17:28:33.210Z,99779.70
2019-06-08T17:32:35.874Z,99787.81
2019-06-08T17:36:38.601Z,99818.77
2019-06-08T17:40:42.407Z,99829.48
2019-06-08T17:44:44.311Z,99832.56
2019-06-08T17:48:46.325Z,99836.69
2019-06-08T17:52:48.060Z,99836.11
2019-06-08T17:56:49.809Z,99837.35
2019-06-08T18:00:51.552Z,99832.66
2019-06-08T18:04:53.330Z,99835.02
2019-06-08T18:08:55.048Z,99834.20
2019-06-08T18:12:58.757Z,99834.58
2019-06-08T18:17:00.709Z,99850.94
2019-06-08T18:21:02.847Z,99848.25
2019-06-08T18:25:07.590Z,99858.33
2019-06-08T18:29:08.850Z,99846.61
2019-06-08T18:33:10.911Z,99856.06
2019-06-08T18:37:12.859Z,99844.77
2019-06-08T18:41:14.607Z,99859.44
2019-06-08T18:45:18.155Z,99850.52
2019-06-08T18:49:20.446Z,99851.71
2019-06-08T18:53:22.663Z,99847.52
2019-06-08T18:57:24.426Z,99861.17
2019-06-08T19:01:27.514Z,99867.44
2019-06-08T19:05:30.115Z,99871.42
2019-06-08T19:09:32.638Z,99868.64
2019-06-08T19:13:34.401Z,99873.34
2019-06-08T19:17:39.846Z,99883.11
2019-06-08T19:21:40.807Z,99881.59
2019-06-08T19:25:45.834Z,99886.87
2019-06-08T19:29:49.167Z,99885.64
2019-06-08T19:33:53.316Z,99902.48
2019-06-08T19:37:54.192Z,99907.77
2019-06-08T19:41:57.262Z,99914.08
2019-06-08T19:45:59.576Z,99916.97
2019-06-08T19:50:01.398Z,99924.31
2019-06-08T19:54:03.166Z,99935.93
2019-06-08T19:58:04.931Z,99934.08
2019-06-08T20:02:08.656Z,99929.42
2019-06-08T20:06:10.356Z,99939.80
2019-06-08T20:10:12.319Z,99938.52
2019-06-08T20:14:14.087Z,99937.23
2019-06-08T20:18:17.216Z,99942.06
2019-06-08T20:22:19.074Z,99938.05
2019-06-08T20:26:20.824Z,99941.66
2019-06-08T20:30:22.571Z,99939.34
2019-06-08T20:34:26.707Z,99937.65
2019-06-08T20:38:37.715Z,99948.52
2019-06-08T20:42:32.046Z,99948.43
2019-06-08T20:46:34.093Z,99951.95
2019-06-08T20:50:37.795Z,99959.83
2019-06-08T20:54:39.793Z,99964.11
2019-06-08T20:58:41.549Z,99965.05
2019-06-08T21:02:43.922Z,99969.09
2019-06-08T21:06:48.280Z,99969.73
2019-06-08T21:10:52.300Z,99978.43
2019-06-08T21:14:54.215Z,99978.55
2019-06-08T21:18:57.975Z,99979.81
2019-06-08T21:23:00.307Z,99977.58
2019-06-08T21:27:02.829Z,99981.19
2019-06-08T21:31:04.779Z,99976.94
2019-06-08T21:35:07.631Z,99984.27
2019-06-08T21:39:09.530Z,99981.92
2019-06-08T21:43:11.258Z,99990.59
2019-06-08T21:47:13.016Z,99998.05
2019-06-08T21:51:14.795Z,99998.51
2019-06-08T21:55:17.764Z,100001.72
2019-06-08T21:59:19.998Z,99990.24
2019-06-08T22:03:21.780Z,99995.53
2019-06-08T22:07:23.522Z,100006.55
2019-06-08T22:11:25.298Z,99998.47
2019-06-08T22:15:27.336Z,99999.76
2019-06-08T22:19:29.384Z,100000.19
2019-06-08T22:23:31.182Z,100002.59
2019-06-08T22:27:32.958Z,100002.22
2019-06-08T22:31:37.043Z,100002.23
2019-06-08T22:35:38.500Z,100005.95
2019-06-08T22:39:40.264Z,100004.79
2019-06-08T22:43:42.159Z,100003.48
2019-06-08T22:47:43.942Z,100006.16
2019-06-08T22:51:47.747Z,100003.70
2019-06-08T22:55:49.400Z,100004.02
2019-06-08T22:59:51.776Z,100006.70
2019-06-08T23:03:53.682Z,100002.69
2019-06-08T23:07:59.853Z,100012.48
2019-06-08T23:12:03.024Z,100010.67
2019-06-08T23:16:05.692Z,100012.20
2019-06-08T23:20:08.802Z,100017.83
2019-06-08T23:24:10.699Z,100020.89
2019-06-08T23:28:12.464Z,100020.89
2019-06-08T23:32:14.255Z,100019.28
2019-06-08T23:36:44.973Z,100020.41
2019-06-08T23:40:19.685Z,100020.41
2019-06-08T23:44:21.460Z,100016.08
2019-06-08T23:48:23.225Z,100015.70
2019-06-08T23:52:27.206Z,100007.45
2019-06-08T23:56:28.603Z,100006.14
